Time;durP1;ratioP1;P1;durP2;ratioP2;P2;SDS_P1;SDS_P2;PMS_P1;PMS_P2;Temp;Humidity;BMP_temperature;BMP_pressure;BME280_temperature;BME280_humidity;BME280_pressure;Samples;Min_cycle;Max_cycle;Signal;HPM_P1;HPM_P2
2022/01/12 00:00:56;;;;;;;;;;;;;;;1.31;61.10;102160.45;1700121;81;20194;-76
2022/01/12 00:03:21;;;;;;;;;;;;;;;1.06;60.97;102159.88;1729276;81;20102;-77
2022/01/12 00:05:47;;;;;;;;;;;;;;;1.25;60.83;102154.98;1738322;81;20148;-76
2022/01/12 00:08:13;;;;;;;;;;;;;;;1.20;60.78;102150.37;1749926;80;21064;-76
2022/01/12 00:10:39;;;;;;;;;;;;;;;1.35;60.75;102145.16;1741549;81;20215;-75
2022/01/12 00:13:04;;;;;;;;;;;;;;;1.41;60.73;102151.91;1723349;81;20232;-77
2022/01/12 00:15:30;;;;;;;;;;;;;;;1.29;60.26;102150.55;1747577;81;20164;-77
2022/01/12 00:17:56;;;;;;;;;;;;;;;1.23;60.54;102144.23;1731406;81;20206;-77
2022/01/12 00:20:22;;;;;;;;;;;;;;;1.29;60.75;102142.73;1746703;81;21079;-78
2022/01/12 00:22:47;;;;;;;;;;;;;;;1.42;60.44;102142.74;1727582;81;20183;-76
2022/01/12 00:33:14;;;;;;;;;;;;;;;1.47;59.89;102145.67;1715890;82;20836;-78
2022/01/12 00:35:42;;;;;;;;;;;;;;;1.44;60.14;102138.80;1717260;82;20988;-77
2022/01/12 00:38:08;;;;;;;;;;;;;;;1.32;60.91;102145.25;1712145;82;20342;-76
2022/01/12 00:40:39;;;;;;;;;;;;;;;1.30;60.91;102143.13;1716398;82;20192;-77
2022/01/12 00:43:04;;;;;;;;;;;;;;;1.38;61.13;102139.86;1716333;82;20149;-77
2022/01/12 00:45:32;;;;;;;;;;;;;;;1.56;60.77;102146.22;1742870;80;21064;-79
2022/01/12 00:47:57;;;;;;;;;;;;;;;1.61;60.45;102147.38;1697352;84;20417;-80
2022/01/12 00:50:23;;;;;;;;;;;;;;;1.36;60.81;102147.30;1696918;83;20159;-78
2022/01/12 00:52:48;;;;;;;;;;;;;;;1.47;60.95;102146.97;1679687;84;20163;-78
2022/01/12 00:55:14;;;;;;;;;;;;;;;1.52;60.79;102145.91;1718503;82;20184;-78
2022/01/12 00:57:40;;;;;;;;;;;;;;;1.66;60.62;102136.34;1720552;81;21098;-77
2022/01/12 01:00:07;;;;;;;;;;;;;;;1.68;60.27;102138.48;1738183;82;20173;-78
2022/01/12 01:02:33;;;;;;;;;;;;;;;1.59;60.22;102140.08;1662323;84;20487;-78
2022/01/12 01:05:00;;;;;;;;;;;;;;;1.49;60.50;102139.95;1713541;82;20179;-77
2022/01/12 01:07:26;;;;;;;;;;;;;;;1.66;60.45;102133.75;1662442;84;20170;-77
2022/01/12 01:10:18;;;;;;;;;;;;;;;1.61;60.03;102138.27;1713425;82;21020;-77
2022/01/12 01:12:19;;;;;;;;;;;;;;;1.64;60.28;102138.16;1721527;81;20140;-79
2022/01/12 01:14:49;;;;;;;;;;;;;;;1.73;60.09;102143.08;1731117;81;20139;-77
2022/01/12 01:25:28;;;;;;;;;;;;;;;1.70;59.79;102139.27;1694686;82;20179;-80
2022/01/12 01:25:31;;;;;;;;;;;;;;;2.01;59.49;102133.05;1706935;81;20438;-76
2022/01/12 01:27:51;;;;;;;;;;;;;;;2.10;59.30;102130.13;1715796;82;20603;-79
2022/01/12 01:30:16;;;;;;;;;;;;;;;2.13;59.00;102135.24;1706350;82;20163;-76
2022/01/12 01:32:43;;;;;;;;;;;;;;;1.78;59.67;102134.66;1704326;81;20186;-77
2022/01/12 01:35:09;;;;;;;;;;;;;;;1.54;60.18;102139.34;1705128;83;21095;-77
2022/01/12 01:37:35;;;;;;;;;;;;;;;1.45;60.47;102138.36;1711690;82;20543;-76
2022/01/12 01:40:01;;;;;;;;;;;;;;;1.47;60.60;102134.80;1717310;81;20206;-77
2022/01/12 01:42:41;;;;;;;;;;;;;;;1.43;60.74;102139.25;1712476;81;20230;-82
2022/01/12 01:55:34;;;;;;;;;;;;;;;1.67;60.63;102134.16;1671092;84;20464;-76
2022/01/12 01:57:59;;;;;;;;;;;;;;;1.67;60.54;102128.95;1713163;82;20152;-76
2022/01/12 02:00:26;;;;;;;;;;;;;;;1.81;60.38;102140.69;1706204;81;21105;-75
2022/01/12 02:02:53;;;;;;;;;;;;;;;1.72;60.49;102140.06;1706773;82;20149;-77
2022/01/12 02:05:19;;;;;;;;;;;;;;;1.59;60.91;102135.70;1710132;83;21038;-76
2022/01/12 02:07:44;;;;;;;;;;;;;;;1.59;60.99;102130.96;1709970;82;20146;-76
2022/01/12 02:10:10;;;;;;;;;;;;;;;1.66;60.88;102132.44;1708379;82;20187;-76
2022/01/12 02:12:36;;;;;;;;;;;;;;;1.73;60.71;102127.45;1702315;81;21173;-79
2022/01/12 02:15:01;;;;;;;;;;;;;;;1.53;61.11;102130.69;1711103;82;20785;-76
2022/01/12 02:17:34;;;;;;;;;;;;;;;1.69;60.66;102131.05;1716730;81;20143;-75
2022/01/12 02:20:12;;;;;;;;;;;;;;;1.86;60.66;102134.86;1710221;83;20160;-76
2022/01/12 02:36:10;;;;;;;;;;;;;;;2.08;59.42;102122.83;1680805;83;20124;-76
2022/01/12 02:41:16;;;;;;;;;;;;;;;1.84;60.41;102118.44;1711880;82;20175;-76
2022/01/12 02:50:38;;;;;;;;;;;;;;;2.00;60.14;102118.31;1683803;83;20522;-76
2022/01/12 02:53:39;;;;;;;;;;;;;;;2.11;59.94;102121.42;1699889;82;20156;-76
2022/01/12 02:54:04;;;;;;;;;;;;;;;2.17;59.70;102114.28;1692428;83;20780;-79
2022/01/12 02:56:32;;;;;;;;;;;;;;;1.92;60.35;102112.52;1698291;83;20140;-77
2022/01/12 02:58:59;;;;;;;;;;;;;;;2.09;60.36;102115.39;1714449;82;20168;-76
2022/01/12 03:03:59;;;;;;;;;;;;;;;2.22;60.23;102107.14;1681500;83;20298;-76
2022/01/12 03:06:27;;;;;;;;;;;;;;;2.14;60.29;102103.08;1680475;83;20203;-76
2022/01/12 03:08:52;;;;;;;;;;;;;;;2.20;60.33;102106.36;1680527;83;20179;-76
2022/01/12 03:11:19;;;;;;;;;;;;;;;2.02;60.69;102103.49;1679396;83;20765;-78
2022/01/12 03:13:44;;;;;;;;;;;;;;;1.88;60.76;102101.78;1681367;83;21080;-80
2022/01/12 03:16:14;;;;;;;;;;;;;;;1.94;60.96;102104.19;1688296;83;21156;-80
2022/01/12 03:18:38;;;;;;;;;;;;;;;2.07;60.87;102112.00;1680124;83;20211;-79
2022/01/12 03:21:04;;;;;;;;;;;;;;;2.08;60.83;102109.80;1681593;83;21046;-76
2022/01/12 03:23:30;;;;;;;;;;;;;;;2.09;60.79;102108.03;1702225;83;20220;-76
2022/01/12 03:25:56;;;;;;;;;;;;;;;1.78;61.35;102119.02;1681323;83;20203;-76
2022/01/12 03:28:21;;;;;;;;;;;;;;;1.73;61.39;102120.09;1680447;83;21116;-77
2022/01/12 03:30:53;;;;;;;;;;;;;;;1.57;61.97;102121.02;1680375;82;20784;-76
2022/01/12 03:38:42;;;;;;;;;;;;;;;1.29;62.87;102131.03;1680609;83;20104;-76
2022/01/12 03:41:08;;;;;;;;;;;;;;;1.38;62.74;102129.88;1681464;83;22703;-76
2022/01/12 03:43:33;;;;;;;;;;;;;;;1.20;63.17;102133.45;1680182;83;20204;-76
2022/01/12 03:45:59;;;;;;;;;;;;;;;1.21;63.33;102130.39;1681963;83;20178;-76
2022/01/12 03:48:24;;;;;;;;;;;;;;;1.41;62.94;102137.16;1688749;83;20318;-76
2022/01/12 03:50:50;;;;;;;;;;;;;;;1.50;62.49;102131.25;1683304;83;20523;-78
2022/01/12 03:53:16;;;;;;;;;;;;;;;1.46;62.46;102129.63;1681326;83;21096;-77
2022/01/12 03:55:42;;;;;;;;;;;;;;;1.43;62.57;102136.65;1680725;83;20588;-77
2022/01/12 03:58:10;;;;;;;;;;;;;;;1.41;62.84;102135.86;1702662;82;20108;-78
2022/01/12 04:00:36;;;;;;;;;;;;;;;1.49;62.71;102134.75;1692440;83;20405;-76
2022/01/12 04:03:05;;;;;;;;;;;;;;;1.48;62.56;102129.16;1680768;83;20211;-75
2022/01/12 04:10:41;;;;;;;;;;;;;;;1.55;62.41;102121.53;1700607;83;20138;-77
2022/01/12 04:13:07;;;;;;;;;;;;;;;1.50;62.63;102120.84;1687262;83;20172;-76
2022/01/12 04:15:32;;;;;;;;;;;;;;;1.51;62.51;102113.41;1705074;82;20794;-77
2022/01/12 04:17:58;;;;;;;;;;;;;;;1.61;62.37;102109.62;1684757;82;20993;-79
2022/01/12 04:20:23;;;;;;;;;;;;;;;1.55;62.36;102108.05;1703580;82;20168;-75
2022/01/12 04:25:33;;;;;;;;;;;;;;;1.62;62.50;102112.63;1681565;83;20155;-77
2022/01/12 04:27:58;;;;;;;;;;;;;;;1.67;62.49;102115.93;1699763;81;20983;-76
2022/01/12 04:30:24;;;;;;;;;;;;;;;1.33;63.16;102114.40;1704610;81;21127;-77
2022/01/12 04:32:50;;;;;;;;;;;;;;;1.57;63.03;102115.81;1712957;81;20313;-77
2022/01/12 04:35:17;;;;;;;;;;;;;;;1.39;63.72;102118.57;1702420;82;21442;-77
2022/01/12 04:37:42;;;;;;;;;;;;;;;1.30;64.68;102119.70;1712176;81;21015;-76
2022/01/12 04:40:09;;;;;;;;;;;;;;;1.22;65.34;102116.49;1712677;81;20166;-80
2022/01/12 04:42:35;;;;;;;;;;;;;;;1.08;67.79;102112.55;1701531;82;21160;-76
2022/01/12 04:45:16;;;;;;;;;;;;;;;1.15;69.18;102120.17;1706784;83;20342;-77
2022/01/12 04:47:57;;;;;;;;;;;;;;;1.21;69.38;102121.28;1698609;83;20484;-76
2022/01/12 04:50:07;;;;;;;;;;;;;;;1.23;69.52;102123.41;1701240;83;20442;-77
2022/01/12 04:52:32;;;;;;;;;;;;;;;1.39;68.99;102120.71;1706841;82;20150;-78
2022/01/12 04:54:58;;;;;;;;;;;;;;;1.16;70.47;102119.28;1715207;81;21775;-76
2022/01/12 04:57:24;;;;;;;;;;;;;;;1.27;70.17;102113.75;1709016;82;20142;-75
2022/01/12 05:00:04;;;;;;;;;;;;;;;1.31;70.24;102118.81;1700861;82;20547;-76
2022/01/12 05:07:56;;;;;;;;;;;;;;;1.40;70.34;102100.77;1705172;82;20533;-78
2022/01/12 05:12:49;;;;;;;;;;;;;;;1.56;69.68;102103.72;1667729;84;20148;-78
2022/01/12 05:15:18;;;;;;;;;;;;;;;1.38;70.17;102111.22;1680340;83;20187;-77
2022/01/12 05:17:39;;;;;;;;;;;;;;;1.24;71.09;102112.08;1679328;84;20162;-76
2022/01/12 05:20:06;;;;;;;;;;;;;;;1.27;70.41;102118.48;1684262;84;21088;-76
2022/01/12 05:22:32;;;;;;;;;;;;;;;1.23;69.21;102116.91;1670005;83;20190;-77
2022/01/12 05:24:57;;;;;;;;;;;;;;;1.10;68.39;102116.86;1670641;83;20535;-76
2022/01/12 05:27:23;;;;;;;;;;;;;;;0.99;68.26;102118.02;1673959;84;20730;-76
2022/01/12 05:29:48;;;;;;;;;;;;;;;0.89;68.03;102125.72;1662453;84;20149;-76
2022/01/12 05:32:14;;;;;;;;;;;;;;;0.85;67.88;102117.59;1713431;82;21102;-75
2022/01/12 05:34:41;;;;;;;;;;;;;;;0.86;67.83;102119.30;1699304;82;20211;-74
2022/01/12 05:37:06;;;;;;;;;;;;;;;0.89;67.43;102129.62;1700892;82;20165;-77
2022/01/12 05:39:32;;;;;;;;;;;;;;;0.88;67.44;102117.04;1699849;82;20126;-79
2022/01/12 05:41:57;;;;;;;;;;;;;;;1.14;66.99;102117.19;1698853;82;20198;-76
2022/01/12 05:44:25;;;;;;;;;;;;;;;1.28;66.69;102120.20;1713983;81;21924;-79
2022/01/12 05:46:51;;;;;;;;;;;;;;;1.40;66.36;102121.13;1714500;82;20202;-79
2022/01/12 05:49:35;;;;;;;;;;;;;;;1.53;65.75;102110.33;1700824;82;20174;-80
2022/01/12 05:52:01;;;;;;;;;;;;;;;1.54;65.32;102109.41;1702066;82;20587;-77
2022/01/12 05:54:26;;;;;;;;;;;;;;;1.59;64.72;102111.43;1697220;82;20146;-77
2022/01/12 05:56:52;;;;;;;;;;;;;;;1.67;64.72;102110.72;1696267;82;21194;-76
2022/01/12 05:59:18;;;;;;;;;;;;;;;1.59;64.44;102108.83;1695967;82;20126;-77
2022/01/12 06:01:44;;;;;;;;;;;;;;;1.58;64.51;102107.11;1698895;82;20190;-80
2022/01/12 06:04:09;;;;;;;;;;;;;;;1.64;64.13;102106.91;1695691;82;20777;-78
2022/01/12 06:06:35;;;;;;;;;;;;;;;1.73;63.83;102107.91;1696124;82;20118;-78
2022/01/12 06:09:00;;;;;;;;;;;;;;;1.64;64.23;102101.70;1698892;82;21151;-78
2022/01/12 06:11:26;;;;;;;;;;;;;;;1.65;64.26;102107.33;1698458;82;20418;-77
2022/01/12 06:13:52;;;;;;;;;;;;;;;1.77;64.14;102112.13;1718037;81;20135;-74
2022/01/12 06:16:18;;;;;;;;;;;;;;;1.86;63.69;102103.60;1724652;81;20137;-78
2022/01/12 06:18:43;;;;;;;;;;;;;;;1.63;64.09;102101.30;1730770;81;20144;-77
2022/01/12 06:21:09;;;;;;;;;;;;;;;1.72;64.25;102108.80;1721995;82;20257;-77
2022/01/12 06:23:34;;;;;;;;;;;;;;;1.82;63.92;102115.02;1733194;82;20160;-77
2022/01/12 06:26:00;;;;;;;;;;;;;;;1.87;64.10;102118.34;1666452;84;20137;-78
2022/01/12 06:31:13;;;;;;;;;;;;;;;1.62;67.50;102112.63;1722605;82;20715;-79
2022/01/12 06:33:45;;;;;;;;;;;;;;;1.41;70.59;102121.97;1701418;83;21202;-78
2022/01/12 06:36:18;;;;;;;;;;;;;;;1.37;70.62;102114.71;1702222;83;20532;-78
2022/01/12 06:38:44;;;;;;;;;;;;;;;1.35;71.41;102128.23;1711816;83;20161;-79
2022/01/12 06:41:10;;;;;;;;;;;;;;;1.26;72.14;102118.11;1700242;83;20208;-77
2022/01/12 06:43:36;;;;;;;;;;;;;;;1.33;72.15;102130.02;1704317;83;20206;-75
2022/01/12 06:46:04;;;;;;;;;;;;;;;1.24;72.58;102132.47;1705173;83;21043;-76
2022/01/12 06:48:30;;;;;;;;;;;;;;;1.25;72.73;102135.91;1702962;82;20202;-76
2022/01/12 06:50:56;;;;;;;;;;;;;;;1.08;73.40;102133.36;1707432;82;20167;-78
2022/01/12 06:53:21;;;;;;;;;;;;;;;1.01;73.95;102138.36;1708886;83;20146;-77
2022/01/12 06:55:47;;;;;;;;;;;;;;;0.73;75.02;102147.41;1717463;82;20170;-75
2022/01/12 06:58:12;;;;;;;;;;;;;;;0.57;75.92;102140.92;1741519;81;21118;-76
2022/01/12 07:00:38;;;;;;;;;;;;;;;0.65;75.73;102134.63;1741226;81;20381;-75
2022/01/12 07:03:04;;;;;;;;;;;;;;;0.73;75.74;102143.94;1738580;82;20170;-75
2022/01/12 07:05:29;;;;;;;;;;;;;;;0.71;75.84;102144.86;1715463;82;21123;-77
2022/01/12 07:07:55;;;;;;;;;;;;;;;0.81;75.71;102149.77;1712145;82;20134;-76
2022/01/12 07:10:20;;;;;;;;;;;;;;;0.60;76.34;102150.78;1722860;82;21162;-80
2022/01/12 07:12:46;;;;;;;;;;;;;;;0.70;76.43;102155.30;1708875;82;20240;-75
2022/01/12 07:15:11;;;;;;;;;;;;;;;0.76;76.48;102160.30;1708900;82;20157;-77
2022/01/12 07:17:37;;;;;;;;;;;;;;;0.96;75.99;102157.59;1714095;82;20162;-76
2022/01/12 07:20:04;;;;;;;;;;;;;;;0.85;76.86;102155.30;1709533;82;20164;-80
2022/01/12 07:22:30;;;;;;;;;;;;;;;0.95;76.24;102152.84;1728125;82;21380;-77
2022/01/12 07:24:55;;;;;;;;;;;;;;;1.00;76.49;102154.86;1708111;82;20656;-76
2022/01/12 07:27:21;;;;;;;;;;;;;;;1.11;75.95;102162.34;1708750;82;20279;-76
2022/01/12 07:29:47;;;;;;;;;;;;;;;1.23;75.59;102157.24;1709309;82;20133;-76
2022/01/12 07:32:12;;;;;;;;;;;;;;;1.20;75.24;102166.44;1715278;81;20685;-78
2022/01/12 07:34:38;;;;;;;;;;;;;;;1.21;75.14;102171.60;1701723;82;21095;-77
2022/01/12 07:37:03;;;;;;;;;;;;;;;1.10;75.25;102172.34;1707211;82;20143;-77
2022/01/12 07:39:29;;;;;;;;;;;;;;;0.98;75.16;102173.57;1705153;82;20229;-76
2022/01/12 07:41:55;;;;;;;;;;;;;;;1.03;75.08;102182.09;1703735;82;20110;-75
2022/01/12 07:44:21;;;;;;;;;;;;;;;0.89;74.44;102176.44;1706132;82;20188;-77
2022/01/12 07:46:47;;;;;;;;;;;;;;;0.92;74.19;102175.05;1712674;81;21185;-76
2022/01/12 07:49:12;;;;;;;;;;;;;;;0.84;74.20;102178.29;1701763;82;20257;-76
2022/01/12 07:51:38;;;;;;;;;;;;;;;0.83;73.40;102183.11;1708530;82;20158;-75
2022/01/12 07:54:03;;;;;;;;;;;;;;;0.82;72.54;102178.80;1708039;82;20446;-75
2022/01/12 07:56:29;;;;;;;;;;;;;;;0.71;72.42;102176.06;1701345;82;20158;-76
2022/01/12 07:58:55;;;;;;;;;;;;;;;0.78;72.02;102173.26;1708808;82;21145;-76
2022/01/12 08:01:20;;;;;;;;;;;;;;;0.86;71.62;102172.63;1703120;82;20475;-78
2022/01/12 08:03:46;;;;;;;;;;;;;;;0.82;71.24;102169.69;1706398;82;20229;-76
2022/01/12 08:06:11;;;;;;;;;;;;;;;0.97;70.28;102167.95;1709856;82;20492;-76
2022/01/12 08:08:37;;;;;;;;;;;;;;;0.95;69.82;102171.05;1707244;82;20196;-76
2022/01/12 08:11:02;;;;;;;;;;;;;;;1.02;69.57;102156.95;1705462;82;21082;-75
2022/01/12 08:13:28;;;;;;;;;;;;;;;0.99;68.69;102157.05;1703401;81;20138;-78
2022/01/12 08:15:53;;;;;;;;;;;;;;;0.87;68.64;102162.17;1712838;81;20135;-76
2022/01/12 08:18:19;;;;;;;;;;;;;;;0.85;69.21;102167.00;1709036;82;20459;-78
2022/01/12 08:20:45;;;;;;;;;;;;;;;0.87;68.44;102167.80;1710483;81;20171;-79
2022/01/12 08:23:10;;;;;;;;;;;;;;;0.89;68.73;102160.83;1707640;81;21089;-78
2022/01/12 08:25:38;;;;;;;;;;;;;;;0.84;68.13;102156.19;1707710;82;20875;-78
2022/01/12 08:28:07;;;;;;;;;;;;;;;0.80;68.50;102155.89;1711324;83;20095;-77
2022/01/12 08:30:34;;;;;;;;;;;;;;;0.82;68.22;102156.23;1706401;82;20206;-78
2022/01/12 08:33:00;;;;;;;;;;;;;;;0.76;68.31;102146.45;1701486;83;20214;-76
2022/01/12 08:35:27;;;;;;;;;;;;;;;0.78;68.20;102151.16;1710763;82;21824;-76
2022/01/12 08:37:52;;;;;;;;;;;;;;;0.63;68.51;102150.70;1706131;83;21037;-75
2022/01/12 08:40:19;;;;;;;;;;;;;;;0.59;68.22;102150.83;1707802;82;20162;-81
2022/01/12 08:42:44;;;;;;;;;;;;;;;0.59;68.40;102150.40;1710581;81;20310;-75
2022/01/12 08:45:10;;;;;;;;;;;;;;;0.76;67.34;102143.86;1703770;82;20228;-78
2022/01/12 08:47:36;;;;;;;;;;;;;;;0.77;67.16;102145.11;1699737;82;21176;-76
2022/01/12 08:50:03;;;;;;;;;;;;;;;0.59;66.94;102134.80;1703690;82;20142;-80
2022/01/12 08:52:30;;;;;;;;;;;;;;;0.75;66.78;102140.88;1705195;82;20598;-76
2022/01/12 08:54:55;;;;;;;;;;;;;;;0.75;66.89;102140.88;1704149;83;20507;-77
2022/01/12 08:57:21;;;;;;;;;;;;;;;0.75;66.20;102139.57;1696363;82;20181;-79
2022/01/12 08:59:47;;;;;;;;;;;;;;;0.80;66.27;102140.28;1701125;82;21855;-78
2022/01/12 09:02:14;;;;;;;;;;;;;;;0.71;66.65;102156.56;1699644;82;20138;-76
2022/01/12 09:04:42;;;;;;;;;;;;;;;0.78;66.14;102155.93;1711942;83;20482;-75
2022/01/12 09:07:07;;;;;;;;;;;;;;;0.82;66.46;102155.39;1718546;81;20149;-80
2022/01/12 09:09:33;;;;;;;;;;;;;;;0.89;65.63;102142.16;1711488;82;20162;-76
2022/01/12 09:11:59;;;;;;;;;;;;;;;1.03;65.37;102145.66;1705089;82;21093;-80
2022/01/12 09:14:24;;;;;;;;;;;;;;;1.20;64.91;102147.77;1714315;81;20231;-76
2022/01/12 09:16:58;;;;;;;;;;;;;;;0.96;65.15;102149.33;1705553;82;20147;-75
2022/01/12 09:19:24;;;;;;;;;;;;;;;1.11;64.69;102148.03;1706055;81;20138;-76
2022/01/12 09:21:49;;;;;;;;;;;;;;;1.10;64.20;102140.28;1704661;82;20175;-79
2022/01/12 09:24:15;;;;;;;;;;;;;;;1.22;64.17;102143.36;1703938;83;21182;-76
2022/01/12 09:26:41;;;;;;;;;;;;;;;1.19;63.59;102136.09;1705013;81;20214;-80
2022/01/12 09:29:06;;;;;;;;;;;;;;;1.48;63.47;102130.46;1702723;83;20177;-76
2022/01/12 09:31:32;;;;;;;;;;;;;;;1.37;62.97;102125.13;1711379;82;20785;-78
2022/01/12 09:33:57;;;;;;;;;;;;;;;1.13;62.77;102118.91;1701654;83;20156;-78
2022/01/12 09:36:23;;;;;;;;;;;;;;;1.10;62.78;102122.06;1706984;83;21093;-77
2022/01/12 09:38:49;;;;;;;;;;;;;;;1.15;63.11;102125.37;1711963;83;20459;-77
2022/01/12 09:41:14;;;;;;;;;;;;;;;1.32;62.73;102128.33;1704696;81;20202;-80
2022/01/12 09:43:42;;;;;;;;;;;;;;;1.38;61.92;102122.94;1706487;83;20416;-79
2022/01/12 09:46:08;;;;;;;;;;;;;;;1.17;62.41;102122.30;1704832;81;20163;-77
2022/01/12 09:48:36;;;;;;;;;;;;;;;0.89;63.31;102120.52;1706935;83;21194;-76
2022/01/12 09:51:04;;;;;;;;;;;;;;;0.97;62.88;102117.23;1708693;81;20155;-77
2022/01/12 09:53:30;;;;;;;;;;;;;;;0.55;64.14;102117.57;1703012;83;20171;-78
2022/01/12 09:55:56;;;;;;;;;;;;;;;0.33;64.61;102102.56;1709766;81;20137;-77
2022/01/12 09:58:21;;;;;;;;;;;;;;;0.29;64.20;102106.12;1702018;83;20119;-77
2022/01/12 10:00:57;;;;;;;;;;;;;;;0.84;63.66;102111.97;1708716;83;21157;-77
2022/01/12 10:03:23;;;;;;;;;;;;;;;0.76;63.12;102111.35;1707303;81;20143;-77
2022/01/12 10:05:49;;;;;;;;;;;;;;;0.92;62.94;102106.55;1708350;81;20174;-77
2022/01/12 10:08:16;;;;;;;;;;;;;;;1.13;62.49;102108.97;1698125;83;20336;-79
2022/01/12 10:10:44;;;;;;;;;;;;;;;1.07;62.22;102109.56;1699991;83;20183;-81
2022/01/12 10:13:22;;;;;;;;;;;;;;;1.06;62.51;102114.35;1705374;81;21077;-76
2022/01/12 10:15:46;;;;;;;;;;;;;;;1.07;62.17;102119.09;1705314;83;20103;-75
2022/01/12 10:18:22;;;;;;;;;;;;;;;1.12;61.83;102115.05;1849016;76;20172;-82
2022/01/12 10:20:48;;;;;;;;;;;;;;;1.19;61.61;102108.77;1821107;77;20151;-79
2022/01/12 10:23:15;;;;;;;;;;;;;;;1.05;61.40;102106.13;1816380;77;21225;-80
2022/01/12 10:25:45;;;;;;;;;;;;;;;1.00;61.50;102104.13;1830514;77;20148;-79
2022/01/12 10:28:13;;;;;;;;;;;;;;;1.03;61.31;102106.64;1822678;77;20127;-77
2022/01/12 10:30:39;;;;;;;;;;;;;;;1.37;60.54;102094.34;1820864;77;20473;-77
2022/01/12 10:33:06;;;;;;;;;;;;;;;1.43;60.04;102094.16;1824092;77;20266;-78
2022/01/12 10:35:35;;;;;;;;;;;;;;;1.53;59.13;102094.70;1817815;77;21091;-78
2022/01/12 10:38:14;;;;;;;;;;;;;;;1.33;59.58;102096.17;1825772;77;20604;-76
2022/01/12 10:40:54;;;;;;;;;;;;;;;1.50;59.03;102094.80;1819807;77;20104;-77
2022/01/12 10:43:33;;;;;;;;;;;;;;;1.42;58.99;102089.84;1822678;77;20184;-78
2022/01/12 10:45:59;;;;;;;;;;;;;;;1.56;58.68;102101.95;1822074;77;20178;-79
2022/01/12 10:48:27;;;;;;;;;;;;;;;1.38;58.71;102093.00;1823484;77;21123;-77
2022/01/12 10:50:55;;;;;;;;;;;;;;;1.22;59.45;102104.32;1817778;77;20147;-80
2022/01/12 10:53:31;;;;;;;;;;;;;;;1.28;59.11;102100.69;1818707;77;20478;-78
2022/01/12 10:56:08;;;;;;;;;;;;;;;1.35;59.08;102107.41;1821958;77;20177;-75
2022/01/12 10:58:35;;;;;;;;;;;;;;;1.49;58.92;102089.18;1821036;77;20484;-78
2022/01/12 11:01:01;;;;;;;;;;;;;;;1.32;59.00;102102.30;1815797;77;21074;-80
2022/01/12 11:03:26;;;;;;;;;;;;;;;1.08;59.61;102103.90;1814917;77;20830;-80
2022/01/12 11:05:54;;;;;;;;;;;;;;;1.25;59.64;102102.08;1824664;77;20139;-82
2022/01/12 11:08:19;;;;;;;;;;;;;;;1.44;58.96;102093.23;1821702;77;20199;-79
2022/01/12 11:10:45;;;;;;;;;;;;;;;1.50;58.65;102088.30;1816825;77;20453;-78
2022/01/12 11:13:11;;;;;;;;;;;;;;;1.45;58.48;102094.11;1821323;77;21917;-77
2022/01/12 11:15:37;;;;;;;;;;;;;;;1.34;59.05;102092.69;1822576;77;20588;-77
2022/01/12 11:18:02;;;;;;;;;;;;;;;1.05;59.17;102091.82;1812724;77;20201;-78
2022/01/12 11:20:30;;;;;;;;;;;;;;;1.28;59.18;102092.88;1815525;78;20188;-77
2022/01/12 11:23:13;;;;;;;;;;;;;;;1.30;59.22;102098.88;1821807;77;20474;-79
2022/01/12 11:25:50;;;;;;;;;;;;;;;1.61;58.64;102103.95;1817758;77;21128;-75
2022/01/12 11:28:18;;;;;;;;;;;;;;;1.85;57.78;102095.38;1820976;77;20128;-75
2022/01/12 11:30:54;;;;;;;;;;;;;;;1.62;57.43;102100.91;1818207;77;20130;-76
2022/01/12 11:33:22;;;;;;;;;;;;;;;1.86;56.91;102081.45;1821838;77;20154;-78
2022/01/12 11:35:50;;;;;;;;;;;;;;;1.83;56.52;102069.84;1816169;77;20149;-75
2022/01/12 11:38:23;;;;;;;;;;;;;;;1.83;56.10;102076.35;1814972;78;21063;-77
2022/01/12 11:40:50;;;;;;;;;;;;;;;1.79;55.71;102080.36;1819226;77;21163;-77
2022/01/12 11:43:27;;;;;;;;;;;;;;;1.66;55.77;102069.94;1809842;78;20171;-75
2022/01/12 11:46:03;;;;;;;;;;;;;;;1.62;56.22;102068.36;1815693;78;20192;-76
2022/01/12 11:48:34;;;;;;;;;;;;;;;1.91;55.78;102060.87;1817372;78;20221;-76
2022/01/12 11:50:59;;;;;;;;;;;;;;;2.00;55.49;102058.84;1809257;77;21089;-77
2022/01/12 11:53:25;;;;;;;;;;;;;;;1.86;55.15;102060.62;1818985;77;20264;-75
2022/01/12 11:55:51;;;;;;;;;;;;;;;1.93;55.25;102068.17;1817850;76;20150;-79
2022/01/12 11:58:17;;;;;;;;;;;;;;;1.79;55.58;102063.89;1820464;77;20660;-77
2022/01/12 12:00:43;;;;;;;;;;;;;;;1.49;56.28;102065.75;1815924;78;20513;-76
2022/01/12 12:03:15;;;;;;;;;;;;;;;1.29;56.32;102058.16;1816485;78;21176;-75
2022/01/12 12:05:41;;;;;;;;;;;;;;;1.07;56.77;102051.45;1817740;78;20115;-79
2022/01/12 12:08:06;;;;;;;;;;;;;;;1.03;57.42;102044.20;1818423;78;20214;-74
2022/01/12 12:10:35;;;;;;;;;;;;;;;0.82;57.87;102046.16;1795132;77;21028;-77
2022/01/12 12:13:00;;;;;;;;;;;;;;;1.29;57.42;102037.33;1819285;78;20125;-75
2022/01/12 12:15:26;;;;;;;;;;;;;;;1.42;57.52;102028.20;1825021;77;21029;-79
2022/01/12 12:17:52;;;;;;;;;;;;;;;1.52;57.33;102030.50;1817820;78;20284;-75
2022/01/12 12:20:19;;;;;;;;;;;;;;;1.61;57.01;102030.20;1817402;78;20143;-76
2022/01/12 12:22:46;;;;;;;;;;;;;;;1.50;56.91;102041.43;1817944;77;20194;-76
2022/01/12 12:25:13;;;;;;;;;;;;;;;1.07;57.52;102035.41;1820700;78;20184;-78
2022/01/12 12:27:41;;;;;;;;;;;;;;;1.17;57.31;102037.27;1819232;78;21856;-77
2022/01/12 12:30:09;;;;;;;;;;;;;;;1.47;57.14;102041.07;1817391;77;20253;-76
2022/01/12 12:32:38;;;;;;;;;;;;;;;1.54;57.48;102037.80;1822387;77;20123;-79
2022/01/12 12:35:07;;;;;;;;;;;;;;;1.52;57.55;102033.11;1819242;78;20171;-75
2022/01/12 12:37:39;;;;;;;;;;;;;;;1.60;57.54;102029.78;1816060;78;20533;-76
2022/01/12 12:40:28;;;;;;;;;;;;;;;1.47;57.81;102027.21;1820210;77;21959;-74
2022/01/12 12:43:09;;;;;;;;;;;;;;;1.65;57.47;102028.33;1822524;77;20163;-75
2022/01/12 12:45:38;;;;;;;;;;;;;;;1.54;57.64;102029.99;1818999;78;20123;-78
2022/01/12 12:48:05;;;;;;;;;;;;;;;1.49;57.94;102023.66;1804255;77;20499;-77
2022/01/12 12:50:32;;;;;;;;;;;;;;;1.49;57.73;102017.59;1815523;78;20179;-78
2022/01/12 12:52:58;;;;;;;;;;;;;;;1.46;57.77;102020.29;1823485;77;21162;-77
2022/01/12 12:55:24;;;;;;;;;;;;;;;1.30;58.31;102020.80;1821704;78;20603;-81
2022/01/12 12:57:53;;;;;;;;;;;;;;;1.27;58.83;102026.09;1815411;78;21386;-78
2022/01/12 13:00:21;;;;;;;;;;;;;;;1.41;58.67;102022.62;1819174;77;20571;-77
2022/01/12 13:02:49;;;;;;;;;;;;;;;1.21;59.08;102027.59;1822216;77;20209;-77
2022/01/12 13:05:17;;;;;;;;;;;;;;;1.26;59.48;102021.81;1817725;77;21061;-78
2022/01/12 13:07:44;;;;;;;;;;;;;;;1.37;59.57;102023.61;1817146;77;20180;-77
2022/01/12 13:10:14;;;;;;;;;;;;;;;1.42;59.57;102020.39;1821856;78;20178;-77
2022/01/12 13:12:39;;;;;;;;;;;;;;;1.51;59.45;102025.76;1817291;78;20222;-79
2022/01/12 13:15:10;;;;;;;;;;;;;;;1.25;60.17;102021.41;1822106;78;20530;-78
2022/01/12 13:17:40;;;;;;;;;;;;;;;1.49;60.11;102014.98;1821929;77;21116;-77
2022/01/12 13:22:40;;;;;;;;;;;;;;;1.87;59.75;102003.25;1827546;77;20164;-77
2022/01/12 13:25:10;;;;;;;;;;;;;;;2.02;59.28;101997.96;1824574;77;20140;-76
2022/01/12 13:27:36;;;;;;;;;;;;;;;1.60;60.31;102008.95;1831872;77;20171;-78
2022/01/12 13:30:03;;;;;;;;;;;;;;;1.59;60.34;102003.37;1829513;77;21986;-80
2022/01/12 13:32:28;;;;;;;;;;;;;;;1.51;60.58;102002.75;1827528;77;20147;-77
2022/01/12 13:35:00;;;;;;;;;;;;;;;1.25;60.76;102001.89;1828173;77;20119;-76
2022/01/12 13:37:26;;;;;;;;;;;;;;;1.41;60.86;102011.33;1827982;77;20172;-82
2022/01/12 13:40:03;;;;;;;;;;;;;;;1.26;61.23;102006.20;1822152;77;20444;-77
2022/01/12 13:42:29;;;;;;;;;;;;;;;1.28;60.99;102000.48;1824579;77;21920;-78
2022/01/12 13:45:04;;;;;;;;;;;;;;;1.11;61.57;101997.59;1827271;77;20443;-77
2022/01/12 13:47:34;;;;;;;;;;;;;;;1.01;62.11;101992.68;1827702;77;20183;-76
2022/01/12 13:50:05;;;;;;;;;;;;;;;1.19;61.88;102002.09;1830091;77;20113;-79
2022/01/12 13:52:30;;;;;;;;;;;;;;;1.20;61.91;101985.58;1820748;77;20534;-78
2022/01/12 13:55:00;;;;;;;;;;;;;;;1.27;61.80;101988.83;1830179;77;21063;-77
2022/01/12 13:57:27;;;;;;;;;;;;;;;1.28;61.78;101982.73;1827904;77;20174;-77
2022/01/12 13:59:52;;;;;;;;;;;;;;;1.21;62.08;101979.45;1831241;77;20258;-78
2022/01/12 14:02:24;;;;;;;;;;;;;;;1.28;62.06;101975.76;1829811;77;20142;-76